createdAt,value
2022-11-07T00:01:42.221Z,5.90
2022-11-07T00:04:09.168Z,6.28
2022-11-07T00:06:37.710Z,6.10
2022-11-07T00:09:05.136Z,6.28
2022-11-07T00:11:32.268Z,4.88
2022-11-07T00:13:59.438Z,6.80
2022-11-07T00:16:28.859Z,6.47
2022-11-07T00:18:56.351Z,6.18
2022-11-07T00:21:24.140Z,6.68
2022-11-07T00:23:51.403Z,6.32
2022-11-07T00:26:18.453Z,6.30
2022-11-07T00:28:45.888Z,6.18
2022-11-07T00:31:14.783Z,5.63
2022-11-07T00:33:42.727Z,6.07
2022-11-07T00:36:16.027Z,5.97
2022-11-07T00:38:43.026Z,6.00
2022-11-07T00:41:10.899Z,5.85
2022-11-07T00:43:38.151Z,6.00
2022-11-07T00:46:07.719Z,6.10
2022-11-07T00:48:35.115Z,6.57
2022-11-07T00:51:14.259Z,6.05
2022-11-07T00:53:41.682Z,6.00
2022-11-07T00:56:12.125Z,5.82
2022-11-07T00:58:40.111Z,5.78
2022-11-07T01:01:10.144Z,5.80
2022-11-07T01:03:56.542Z,5.65
2022-11-07T01:08:54.128Z,5.25
2022-11-07T01:11:21.500Z,5.72
2022-11-07T01:13:48.438Z,6.18
2022-11-07T01:16:15.561Z,6.00
2022-11-07T01:18:43.084Z,6.30
2022-11-07T01:21:15.249Z,6.22
2022-11-07T01:23:43.465Z,6.07
2022-11-07T01:26:12.206Z,5.43
2022-11-07T01:28:40.570Z,6.55
2022-11-07T01:31:11.131Z,5.60
2022-11-07T01:33:38.815Z,6.00
2022-11-07T01:36:09.205Z,6.60
2022-11-07T01:38:39.427Z,6.55
2022-11-07T01:41:25.512Z,6.82
2022-11-07T01:44:03.523Z,6.43
2022-11-07T01:46:32.355Z,6.18
2022-11-07T01:49:15.039Z,6.10
2022-11-07T01:51:55.482Z,6.38
2022-11-07T01:54:26.432Z,6.28
2022-11-07T01:56:56.324Z,5.97
2022-11-07T01:59:27.793Z,6.40
2022-11-07T02:01:55.792Z,5.88
2022-11-07T02:04:25.635Z,5.65
2022-11-07T02:07:05.549Z,5.30
2022-11-07T02:09:33.606Z,5.75
2022-11-07T02:12:02.415Z,4.78
2022-11-07T02:14:30.520Z,5.57
2022-11-07T02:16:57.818Z,5.20
2022-11-07T02:19:31.475Z,6.03
2022-11-07T02:22:12.999Z,5.60
2022-11-07T02:24:40.765Z,5.03
2022-11-07T02:27:13.227Z,5.45
2022-11-07T02:29:43.626Z,5.57
2022-11-07T02:32:12.146Z,5.43
2022-11-07T02:34:39.671Z,5.03
2022-11-07T02:37:17.986Z,5.20
2022-11-07T02:39:45.019Z,4.97
2022-11-07T02:42:11.999Z,4.80
2022-11-07T02:44:39.154Z,5.90
2022-11-07T02:47:06.523Z,6.53
2022-11-07T02:49:33.971Z,6.35
2022-11-07T02:52:02.569Z,5.88
2022-11-07T02:54:30.671Z,6.07
2022-11-07T02:56:57.989Z,6.22
2022-11-07T02:59:27.095Z,5.50
2022-11-07T03:01:54.677Z,5.85
2022-11-07T03:04:24.282Z,6.03
2022-11-07T03:06:51.958Z,5.93
2022-11-07T03:09:19.736Z,6.40
2022-11-07T03:11:47.010Z,6.07
2022-11-07T03:14:14.062Z,5.63
2022-11-07T03:16:41.232Z,6.00
2022-11-07T03:19:08.195Z,6.28
2022-11-07T03:21:35.295Z,5.72
2022-11-07T03:24:02.255Z,5.85
2022-11-07T03:26:30.104Z,5.45
2022-11-07T03:28:59.781Z,5.75
2022-11-07T03:31:26.899Z,5.82
2022-11-07T03:33:53.787Z,6.45
2022-11-07T03:36:20.646Z,6.30
2022-11-07T03:38:48.567Z,6.00
2022-11-07T03:41:17.433Z,6.88
2022-11-07T03:43:49.088Z,6.13
2022-11-07T03:46:16.789Z,5.68
2022-11-07T03:48:44.017Z,5.97
2022-11-07T03:51:12.268Z,6.50
2022-11-07T03:53:39.321Z,7.03
2022-11-07T03:56:11.572Z,6.57
2022-11-07T03:58:38.728Z,6.78
2022-11-07T04:01:06.500Z,6.85
2022-11-07T04:03:33.640Z,7.20
2022-11-07T04:06:00.619Z,6.85
2022-11-07T04:08:27.548Z,6.22
2022-11-07T04:10:54.553Z,7.55
2022-11-07T04:13:40.416Z,6.47
2022-11-07T04:16:29.474Z,6.82
2022-11-07T04:18:57.403Z,6.13
2022-11-07T04:21:24.795Z,6.47
2022-11-07T04:23:51.808Z,6.28
2022-11-07T04:26:37.352Z,7.18
2022-11-07T04:29:04.357Z,6.38
2022-11-07T04:31:31.529Z,6.35
2022-11-07T04:33:58.458Z,6.63
2022-11-07T04:36:25.393Z,5.40
2022-11-07T04:38:52.289Z,5.82
2022-11-07T04:41:28.313Z,6.00
2022-11-07T04:43:55.235Z,5.30
2022-11-07T04:46:23.997Z,5.40
2022-11-07T04:48:52.950Z,5.18
2022-11-07T04:51:23.178Z,4.63
2022-11-07T04:53:50.304Z,3.88
2022-11-07T04:56:17.524Z,3.70
2022-11-07T04:58:44.506Z,3.45
2022-11-07T05:01:12.181Z,3.17
2022-11-07T05:03:42.478Z,3.30
2022-11-07T05:06:14.415Z,2.90
2022-11-07T05:08:41.486Z,3.03
2022-11-07T05:11:08.436Z,2.95
2022-11-07T05:13:35.342Z,2.95
2022-11-07T05:16:02.354Z,2.67
2022-11-07T05:18:29.396Z,2.50
2022-11-07T05:20:56.611Z,2.92
2022-11-07T05:23:23.657Z,2.42
2022-11-07T05:25:52.324Z,2.80
2022-11-07T05:28:29.932Z,2.75
2022-11-07T05:31:03.014Z,3.13
2022-11-07T05:33:30.356Z,2.50
2022-11-07T05:35:57.430Z,2.70
2022-11-07T05:38:24.588Z,2.75
2022-11-07T05:40:51.570Z,2.63
2022-11-07T05:43:18.745Z,2.70
2022-11-07T05:45:45.702Z,2.70
2022-11-07T05:48:13.699Z,2.45
2022-11-07T05:50:41.183Z,2.65
2022-11-07T05:53:08.924Z,2.65
2022-11-07T05:55:35.882Z,2.90
2022-11-07T05:58:09.306Z,3.45
2022-11-07T06:00:36.430Z,2.70
2022-11-07T06:03:04.234Z,2.75
2022-11-07T06:05:32.090Z,2.70
2022-11-07T06:07:59.232Z,3.05
2022-11-07T06:10:26.243Z,3.60
2022-11-07T06:13:01.602Z,3.08
2022-11-07T06:15:30.464Z,3.05
2022-11-07T06:18:00.704Z,3.63
2022-11-07T06:20:29.082Z,2.75
2022-11-07T06:23:04.533Z,2.35
2022-11-07T06:25:36.797Z,3.22
2022-11-07T06:28:06.678Z,2.90
2022-11-07T06:30:34.180Z,2.83
2022-11-07T06:33:06.878Z,2.15
2022-11-07T06:35:35.659Z,2.50
2022-11-07T06:38:06.048Z,2.50
2022-11-07T06:40:33.879Z,2.20
2022-11-07T06:43:13.389Z,2.40
2022-11-07T06:45:41.742Z,2.33
2022-11-07T06:48:09.367Z,2.05
2022-11-07T06:50:36.762Z,2.15
2022-11-07T06:53:10.412Z,2.38
2022-11-07T06:55:39.304Z,2.35
2022-11-07T06:58:06.985Z,2.63
2022-11-07T07:00:36.285Z,2.38
2022-11-07T07:03:03.887Z,2.95
2022-11-07T07:05:32.869Z,2.67
2022-11-07T07:08:00.562Z,2.72
2022-11-07T07:10:28.348Z,2.50
2022-11-07T07:12:56.718Z,2.70
2022-11-07T07:15:25.003Z,2.35
2022-11-07T07:17:53.453Z,2.30
2022-11-07T07:20:21.287Z,2.28
2022-11-07T07:22:53.842Z,2.92
2022-11-07T07:25:26.030Z,3.75
2022-11-07T07:27:53.160Z,2.75
2022-11-07T07:30:20.360Z,2.40
2022-11-07T07:32:47.288Z,3.10
2022-11-07T07:35:14.504Z,2.55
2022-11-07T07:37:41.555Z,2.25
2022-11-07T07:40:09.145Z,2.15
2022-11-07T07:42:41.315Z,2.05
2022-11-07T07:45:10.387Z,2.13
2022-11-07T07:47:38.300Z,2.60
2022-11-07T07:50:07.741Z,2.40
2022-11-07T07:52:34.878Z,2.63
2022-11-07T07:55:02.083Z,1.98
2022-11-07T07:57:29.037Z,1.90
2022-11-07T07:59:56.023Z,2.15
2022-11-07T08:02:24.206Z,2.42
2022-11-07T08:04:51.365Z,2.05
2022-11-07T08:07:18.843Z,1.90
2022-11-07T08:09:45.787Z,1.65
2022-11-07T08:12:12.702Z,2.00
2022-11-07T08:14:39.692Z,1.80
2022-11-07T08:17:06.718Z,1.80
2022-11-07T08:19:33.631Z,1.80
2022-11-07T08:22:01.579Z,1.92
2022-11-07T08:24:28.881Z,1.75
2022-11-07T08:26:56.456Z,1.35
2022-11-07T08:29:23.345Z,1.40
2022-11-07T08:31:51.324Z,1.45
2022-11-07T08:34:19.412Z,1.30
2022-11-07T08:36:47.892Z,1.40
2022-11-07T08:39:15.957Z,1.50
2022-11-07T08:41:44.160Z,1.40
2022-11-07T08:44:11.237Z,1.73
2022-11-07T08:46:38.193Z,1.25
2022-11-07T08:49:05.116Z,1.10
2022-11-07T08:51:33.155Z,1.30
2022-11-07T08:54:00.333Z,1.30
2022-11-07T08:56:27.222Z,1.20
2022-11-07T08:58:55.230Z,1.70
2022-11-07T09:01:23.687Z,1.13
2022-11-07T09:03:57.605Z,1.40
2022-11-07T09:06:25.635Z,1.35
2022-11-07T09:08:52.661Z,1.30
2022-11-07T09:11:20.063Z,1.30
2022-11-07T09:13:48.216Z,1.50
2022-11-07T09:16:18.698Z,1.70
2022-11-07T09:18:48.277Z,1.40
2022-11-07T09:21:21.820Z,1.35
2022-11-07T09:23:50.422Z,1.20
2022-11-07T09:26:17.459Z,1.23
2022-11-07T09:28:48.453Z,1.10
2022-11-07T09:31:18.722Z,1.30
2022-11-07T09:33:45.660Z,1.17
2022-11-07T09:36:13.174Z,1.45
2022-11-07T09:38:40.411Z,1.23
2022-11-07T09:41:36.220Z,1.30
2022-11-07T09:44:25.440Z,1.60
2022-11-07T09:47:04.155Z,1.30
2022-11-07T09:49:51.071Z,1.30
2022-11-07T09:52:37.730Z,1.20
2022-11-07T09:55:14.488Z,1.42
2022-11-07T09:57:41.885Z,1.17
2022-11-07T10:00:16.693Z,1.50
2022-11-07T10:02:50.241Z,1.55
2022-11-07T10:05:43.515Z,1.45
2022-11-07T10:08:23.083Z,1.30
2022-11-07T10:10:59.933Z,1.65
2022-11-07T10:13:51.820Z,1.33
2022-11-07T10:16:18.791Z,1.77
2022-11-07T10:18:50.834Z,1.60
2022-11-07T10:21:38.093Z,1.50
2022-11-07T10:24:15.268Z,1.50
2022-11-07T10:26:45.072Z,1.45
2022-11-07T10:29:18.222Z,1.48
2022-11-07T10:31:57.080Z,1.25
2022-11-07T10:34:41.067Z,1.30
2022-11-07T10:37:09.342Z,1.23
2022-11-07T10:39:36.363Z,1.52
2022-11-07T10:42:26.424Z,1.48
2022-11-07T10:44:55.222Z,1.50
2022-11-07T10:47:25.367Z,1.23
2022-11-07T10:50:01.831Z,1.55
2022-11-07T10:52:30.743Z,1.38
2022-11-07T10:55:14.113Z,1.13
2022-11-07T10:57:42.528Z,1.65
2022-11-07T11:00:25.638Z,1.75
2022-11-07T11:02:56.336Z,1.27
2022-11-07T11:05:43.336Z,1.20
2022-11-07T11:08:13.736Z,1.30
2022-11-07T11:10:41.068Z,1.65
2022-11-07T11:13:29.272Z,1.40
2022-11-07T11:16:04.288Z,1.27
2022-11-07T11:18:33.322Z,1.10
2022-11-07T11:21:06.085Z,1.38
2022-11-07T11:23:37.740Z,1.30
2022-11-07T11:26:24.920Z,1.33
2022-11-07T11:29:07.111Z,1.60
2022-11-07T11:31:45.736Z,1.15
2022-11-07T11:34:27.471Z,1.60
2022-11-07T11:37:04.412Z,1.10
2022-11-07T11:39:47.932Z,1.50
2022-11-07T11:42:26.155Z,1.27
2022-11-07T11:44:57.449Z,1.00
2022-11-07T11:47:40.744Z,1.67
2022-11-07T11:50:29.854Z,1.00
2022-11-07T11:52:58.400Z,1.20
2022-11-07T11:55:28.527Z,1.42
2022-11-07T11:58:15.567Z,1.52
2022-11-07T12:00:57.167Z,1.27
2022-11-07T12:04:03.789Z,1.20
2022-11-07T12:06:40.369Z,1.00
2022-11-07T12:09:07.736Z,1.10
2022-11-07T12:11:40.681Z,1.52
2022-11-07T12:14:13.702Z,1.42
2022-11-07T12:16:43.637Z,1.52
2022-11-07T12:19:37.066Z,1.75
2022-11-07T12:22:39.801Z,1.42
2022-11-07T12:25:15.651Z,1.20
2022-11-07T12:28:04.646Z,1.33
2022-11-07T12:30:45.020Z,1.40
2022-11-07T12:33:30.235Z,1.02
2022-11-07T12:36:34.982Z,1.25
2022-11-07T12:39:15.051Z,1.45
2022-11-07T12:41:56.978Z,1.17
2022-11-07T12:44:42.899Z,1.60
2022-11-07T12:47:22.003Z,1.40
2022-11-07T12:50:19.294Z,1.50
2022-11-07T12:53:24.643Z,1.17
2022-11-07T12:56:14.779Z,1.15
2022-11-07T12:58:44.134Z,1.33
2022-11-07T13:01:19.008Z,0.95
2022-11-07T13:04:07.864Z,1.23
2022-11-07T13:06:52.000Z,1.10
2022-11-07T13:09:30.954Z,1.30
2022-11-07T13:12:16.175Z,1.30
2022-11-07T13:14:46.289Z,1.40
2022-11-07T13:17:16.720Z,1.55
2022-11-07T13:20:05.885Z,1.15
2022-11-07T13:22:32.952Z,1.33
2022-11-07T13:25:16.055Z,1.38
2022-11-07T13:27:45.295Z,1.90
2022-11-07T13:30:15.267Z,1.40
2022-11-07T13:32:51.917Z,1.42
2022-11-07T13:35:35.474Z,1.40
2022-11-07T13:38:18.492Z,1.30
2022-11-07T13:40:50.045Z,1.70
2022-11-07T13:43:24.345Z,1.60
2022-11-07T13:45:58.083Z,1.40
2022-11-07T13:48:47.756Z,1.30
2022-11-07T13:51:36.800Z,1.17
2022-11-07T13:54:46.851Z,1.55
2022-11-07T13:57:19.353Z,1.52
2022-11-07T14:00:02.001Z,1.20
2022-11-07T14:02:59.601Z,1.13
2022-11-07T14:05:36.187Z,1.25
2022-11-07T14:10:52.668Z,1.25
2022-11-07T14:13:36.932Z,1.50
2022-11-07T14:16:18.328Z,1.35
2022-11-07T14:18:56.466Z,1.42
2022-11-07T14:21:32.590Z,1.00
2022-11-07T14:24:21.743Z,1.45
2022-11-07T14:27:08.766Z,1.52
2022-11-07T14:29:35.912Z,1.35
2022-11-07T14:32:10.690Z,1.23
2022-11-07T14:34:44.442Z,1.15
2022-11-07T14:37:21.108Z,1.27
2022-11-07T14:39:49.483Z,1.02
2022-11-07T14:42:22.915Z,1.00
2022-11-07T14:44:57.954Z,1.30
2022-11-07T14:47:31.955Z,1.20
2022-11-07T14:50:01.938Z,1.25
2022-11-07T14:52:42.313Z,1.27
2022-11-07T14:55:17.810Z,2.75
2022-11-07T14:57:45.147Z,2.10
2022-11-07T15:00:15.938Z,2.40
2022-11-07T15:02:47.423Z,1.92
2022-11-07T15:05:35.570Z,1.52
2022-11-07T15:08:02.723Z,2.05
2022-11-07T15:10:34.129Z,2.80
2022-11-07T15:13:04.678Z,1.92
2022-11-07T15:15:36.374Z,2.42
2022-11-07T15:18:07.309Z,2.00
2022-11-07T15:20:38.279Z,1.85
2022-11-07T15:23:15.189Z,1.75
2022-11-07T15:25:53.763Z,1.58
2022-11-07T15:28:26.600Z,1.70
2022-11-07T15:30:57.114Z,2.20
2022-11-07T15:33:24.877Z,2.97
2022-11-07T15:35:56.808Z,1.63
2022-11-07T15:38:26.835Z,2.33
2022-11-07T15:40:54.214Z,2.20
2022-11-07T15:43:22.020Z,2.00
2022-11-07T15:45:50.857Z,2.55
2022-11-07T15:48:21.828Z,4.15
2022-11-07T15:50:51.049Z,2.53
2022-11-07T15:53:27.332Z,1.77
2022-11-07T15:55:59.716Z,2.03
2022-11-07T15:58:28.674Z,1.90
2022-11-07T16:00:57.148Z,1.35
2022-11-07T16:03:25.499Z,1.63
2022-11-07T16:05:55.117Z,1.38
2022-11-07T16:08:24.510Z,1.73
2022-11-07T16:10:57.156Z,1.40
2022-11-07T16:13:24.415Z,1.40
2022-11-07T16:15:55.581Z,1.33
2022-11-07T16:18:22.842Z,1.58
2022-11-07T16:20:51.068Z,1.40
2022-11-07T16:23:18.810Z,1.60
2022-11-07T16:25:48.407Z,1.40
2022-11-07T16:28:30.088Z,1.55
2022-11-07T16:30:57.613Z,1.70
2022-11-07T16:33:25.358Z,3.00
2022-11-07T16:35:55.951Z,3.45
2022-11-07T16:38:25.243Z,3.75
2022-11-07T16:40:53.339Z,5.13
2022-11-07T16:43:21.184Z,4.05
2022-11-07T16:45:57.327Z,3.67
2022-11-07T16:48:28.238Z,3.65
2022-11-07T16:50:57.353Z,3.97
2022-11-07T16:53:26.242Z,3.97
2022-11-07T16:56:00.829Z,3.28
2022-11-07T16:58:35.128Z,3.28
2022-11-07T17:01:05.741Z,2.65
2022-11-07T17:03:33.490Z,2.60
2022-11-07T17:06:02.541Z,1.92
2022-11-07T17:08:43.928Z,2.30
2022-11-07T17:11:14.930Z,2.38
2022-11-07T17:13:41.944Z,2.30
2022-11-07T17:16:21.382Z,2.50
2022-11-07T17:18:49.769Z,2.15
2022-11-07T17:21:29.784Z,2.65
2022-11-07T17:23:59.088Z,2.03
2022-11-07T17:26:30.426Z,2.08
2022-11-07T17:28:58.837Z,1.90
2022-11-07T17:31:26.267Z,2.30
2022-11-07T17:33:53.345Z,1.90
2022-11-07T17:36:35.384Z,1.95
2022-11-07T17:39:11.761Z,2.38
2022-11-07T17:41:43.758Z,1.83
2022-11-07T17:44:11.279Z,2.08
2022-11-07T17:46:44.831Z,1.70
2022-11-07T17:49:15.094Z,2.67
2022-11-07T17:51:42.433Z,2.63
2022-11-07T17:54:14.393Z,2.55
2022-11-07T17:56:42.391Z,2.10
2022-11-07T17:59:14.857Z,2.40
2022-11-07T18:01:42.323Z,3.92
2022-11-07T18:04:11.921Z,8.10
2022-11-07T18:06:41.836Z,5.82
2022-11-07T18:09:16.067Z,3.40
2022-11-07T18:11:43.808Z,2.28
2022-11-07T18:14:14.065Z,2.95
2022-11-07T18:16:41.126Z,3.17
2022-11-07T18:19:09.935Z,4.38
2022-11-07T18:21:37.097Z,2.72
2022-11-07T18:24:04.103Z,2.30
2022-11-07T18:26:31.617Z,1.65
2022-11-07T18:29:05.120Z,2.33
2022-11-07T18:31:33.681Z,1.60
2022-11-07T18:34:04.171Z,2.03
2022-11-07T18:36:35.036Z,1.80
2022-11-07T18:39:04.134Z,1.77
2022-11-07T18:41:31.224Z,1.35
2022-11-07T18:44:03.342Z,1.67
2022-11-07T18:46:32.194Z,1.63
2022-11-07T18:49:00.101Z,1.83
2022-11-07T18:51:27.449Z,1.83
2022-11-07T18:53:55.217Z,2.00
2022-11-07T18:56:22.642Z,1.70
2022-11-07T18:58:50.062Z,1.40
2022-11-07T19:01:28.616Z,2.30
2022-11-07T19:03:57.993Z,1.63
2022-11-07T19:06:27.154Z,1.83
2022-11-07T19:08:55.490Z,1.48
2022-11-07T19:11:30.321Z,1.70
2022-11-07T19:14:00.667Z,1.27
2022-11-07T19:16:29.265Z,1.33
2022-11-07T19:18:58.604Z,1.42
2022-11-07T19:21:25.607Z,1.52
2022-11-07T19:23:52.678Z,1.90
2022-11-07T19:26:20.102Z,1.45
2022-11-07T19:28:48.710Z,1.73
2022-11-07T19:31:16.843Z,1.83
2022-11-07T19:33:44.378Z,1.63
2022-11-07T19:36:23.750Z,2.40
2022-11-07T19:38:50.901Z,2.35
2022-11-07T19:41:18.764Z,2.50
2022-11-07T19:43:50.018Z,1.85
2022-11-07T19:46:23.619Z,2.30
2022-11-07T19:48:58.148Z,2.08
2022-11-07T19:51:25.907Z,1.75
2022-11-07T19:53:58.521Z,1.70
2022-11-07T19:56:28.475Z,1.75
2022-11-07T19:58:55.569Z,1.60
2022-11-07T20:01:26.267Z,1.90
2022-11-07T20:03:54.126Z,1.70
2022-11-07T20:06:33.021Z,1.85
2022-11-07T20:09:00.726Z,1.73
2022-11-07T20:11:28.688Z,1.60
2022-11-07T20:14:00.149Z,1.83
2022-11-07T20:16:30.189Z,1.50
2022-11-07T20:18:57.602Z,1.42
2022-11-07T20:21:24.761Z,1.70
2022-11-07T20:23:57.186Z,1.42
2022-11-07T20:26:26.328Z,1.95
2022-11-07T20:28:54.466Z,1.80
2022-11-07T20:31:29.011Z,1.88
2022-11-07T20:34:01.150Z,1.30
2022-11-07T20:36:28.846Z,1.45
2022-11-07T20:38:56.147Z,1.40
2022-11-07T20:41:24.839Z,1.30
2022-11-07T20:44:04.291Z,1.52
2022-11-07T20:46:32.948Z,1.35
2022-11-07T20:49:01.388Z,1.70
2022-11-07T20:51:29.615Z,2.05
2022-11-07T20:53:59.169Z,1.50
2022-11-07T20:56:27.949Z,1.80
2022-11-07T20:58:55.575Z,1.85
2022-11-07T21:01:26.441Z,1.58
2022-11-07T21:03:55.797Z,1.42
2022-11-07T21:06:23.376Z,1.50
2022-11-07T21:08:50.539Z,1.73
2022-11-07T21:11:17.967Z,1.80
2022-11-07T21:13:51.408Z,1.50
2022-11-07T21:16:22.356Z,1.40
2022-11-07T21:18:50.221Z,1.50
2022-11-07T21:21:20.576Z,1.60
2022-11-07T21:23:48.976Z,1.52
2022-11-07T21:26:28.902Z,1.65
2022-11-07T21:28:56.839Z,1.55
2022-11-07T21:31:28.486Z,1.60
2022-11-07T21:33:56.349Z,2.13
2022-11-07T21:36:27.159Z,2.00
2022-11-07T21:38:55.218Z,2.10
2022-11-07T21:41:22.183Z,1.88
2022-11-07T21:43:49.815Z,1.85
2022-11-07T21:46:19.252Z,1.77
2022-11-07T21:48:46.909Z,1.45
2022-11-07T21:51:15.503Z,1.15
2022-11-07T21:53:42.658Z,1.80
2022-11-07T21:56:17.910Z,1.48
2022-11-07T21:58:44.991Z,1.45
2022-11-07T22:01:11.990Z,1.80
2022-11-07T22:04:04.670Z,1.60
2022-11-07T22:06:25.998Z,1.50
2022-11-07T22:08:53.142Z,1.63
2022-11-07T22:11:20.351Z,1.58
2022-11-07T22:13:48.538Z,1.42
2022-11-07T22:16:18.863Z,1.83
2022-11-07T22:18:46.446Z,1.98
2022-11-07T22:21:16.468Z,1.45
2022-11-07T22:23:43.582Z,1.38
2022-11-07T22:26:15.685Z,1.88
2022-11-07T22:28:46.164Z,1.80
2022-11-07T22:31:16.443Z,1.20
2022-11-07T22:33:43.692Z,1.80
2022-11-07T22:36:11.593Z,1.30
2022-11-07T22:38:40.590Z,1.23
2022-11-07T22:41:22.136Z,1.75
2022-11-07T22:43:50.249Z,1.58
2022-11-07T22:46:21.122Z,1.50
2022-11-07T22:48:49.754Z,1.83
2022-11-07T22:51:25.996Z,1.35
2022-11-07T22:54:08.007Z,1.45
2022-11-07T22:56:36.386Z,1.40
2022-11-07T22:59:06.764Z,1.95
2022-11-07T23:01:37.308Z,2.00
2022-11-07T23:04:04.734Z,2.15
2022-11-07T23:06:32.533Z,1.48
2022-11-07T23:09:00.449Z,1.42
2022-11-07T23:11:47.397Z,1.20
2022-11-07T23:14:19.141Z,1.92
2022-11-07T23:16:49.058Z,1.58
2022-11-07T23:19:19.460Z,1.40
2022-11-07T23:21:46.948Z,1.50
2022-11-07T23:24:14.145Z,1.67
2022-11-07T23:26:41.548Z,1.30
2022-11-07T23:29:14.868Z,1.70
2022-11-07T23:31:44.708Z,1.52
2022-11-07T23:34:12.056Z,1.30
2022-11-07T23:36:43.837Z,1.40
2022-11-07T23:39:18.108Z,1.33
2022-11-07T23:41:46.296Z,1.25
2022-11-07T23:44:14.980Z,1.50
2022-11-07T23:47:01.025Z,1.52
2022-11-07T23:49:46.911Z,1.35
2022-11-07T23:52:14.527Z,1.48
2022-11-07T23:54:59.915Z,1.50
2022-11-07T23:57:27.214Z,1.40
